createdAt,value
2019-06-26T00:00:36.441Z,0.00
2019-06-26T00:01:35.525Z,0.00
2019-06-26T00:02:35.656Z,0.00
2019-06-26T00:03:35.528Z,0.00
2019-06-26T00:04:35.518Z,0.00
2019-06-26T00:05:35.518Z,0.00
2019-06-26T00:06:35.515Z,0.00
2019-06-26T00:07:35.531Z,0.00
2019-06-26T00:08:35.510Z,0.00
2019-06-26T00:09:35.509Z,0.00
2019-06-26T00:10:35.508Z,0.00
2019-06-26T00:11:35.504Z,0.00
2019-06-26T00:12:35.501Z,0.00
2019-06-26T00:22:54.326Z,0.00
2019-06-26T00:23:54.322Z,0.00
2019-06-26T00:24:54.322Z,0.00
2019-06-26T00:25:54.316Z,0.00
2019-06-26T00:26:54.315Z,0.00
2019-06-26T00:27:54.312Z,0.00
2019-06-26T00:28:54.310Z,0.00
2019-06-26T00:34:03.293Z,0.00
2019-06-26T00:35:03.288Z,0.00
2019-06-26T00:36:03.287Z,0.00
2019-06-26T00:37:03.285Z,0.00
2019-06-26T00:38:03.285Z,0.00
2019-06-26T00:39:03.283Z,0.00
2019-06-26T00:40:03.279Z,0.00
2019-06-26T00:41:03.275Z,0.00
2019-06-26T00:42:03.273Z,0.00
2019-06-26T00:43:03.270Z,0.00
2019-06-26T00:44:03.287Z,0.00
2019-06-26T00:45:03.266Z,0.00
2019-06-26T00:46:03.266Z,0.00
2019-06-26T00:47:03.262Z,0.00
2019-06-26T00:48:03.257Z,0.00
2019-06-26T00:49:03.255Z,0.00
2019-06-26T00:50:03.255Z,0.00
2019-06-26T00:51:03.254Z,0.00
2019-06-26T00:52:03.253Z,0.00
2019-06-26T00:53:03.248Z,0.00
2019-06-26T00:54:03.250Z,0.00
2019-06-26T00:55:03.257Z,0.00
2019-06-26T00:56:03.244Z,0.00
2019-06-26T00:57:03.238Z,0.00
2019-06-26T00:58:03.340Z,0.00
2019-06-26T00:59:03.244Z,0.00
2019-06-26T01:00:03.260Z,0.00
2019-06-26T01:01:03.280Z,0.00
2019-06-26T01:02:03.227Z,0.00
2019-06-26T01:03:03.227Z,0.00
2019-06-26T01:04:03.224Z,0.00
2019-06-26T01:05:03.225Z,0.00
2019-06-26T01:06:03.227Z,0.00
2019-06-26T01:07:03.231Z,0.00
2019-06-26T01:08:03.209Z,0.00
2019-06-26T01:09:03.209Z,0.00
2019-06-26T01:10:03.276Z,0.00
2019-06-26T01:11:03.205Z,0.00
2019-06-26T01:12:03.204Z,0.00
2019-06-26T01:13:03.202Z,0.00
2019-06-26T01:14:03.198Z,0.00
2019-06-26T01:15:03.245Z,0.00
2019-06-26T01:16:03.191Z,0.00
2019-06-26T01:17:03.192Z,0.00
2019-06-26T01:18:03.187Z,0.00
2019-06-26T01:20:05.711Z,0.00
2019-06-26T01:21:05.643Z,0.00
2019-06-26T01:22:05.641Z,0.00
2019-06-26T01:23:05.637Z,0.00
2019-06-26T01:24:05.636Z,0.00
2019-06-26T01:25:05.632Z,0.00
2019-06-26T01:26:05.630Z,0.00
2019-06-26T01:27:05.627Z,0.00
2019-06-26T01:28:05.623Z,0.00
2019-06-26T01:29:05.621Z,0.00
2019-06-26T01:30:05.621Z,0.00
2019-06-26T01:31:05.616Z,0.00
2019-06-26T01:32:05.615Z,0.00
2019-06-26T01:33:05.613Z,0.00
2019-06-26T01:34:05.613Z,0.00
2019-06-26T01:35:05.607Z,0.00
2019-06-26T01:36:05.604Z,0.00
2019-06-26T01:37:05.601Z,0.00
2019-06-26T01:38:05.599Z,0.00
2019-06-26T01:39:05.645Z,0.00
2019-06-26T01:40:05.613Z,0.00
2019-06-26T01:41:05.592Z,0.00
2019-06-26T01:42:05.590Z,0.00
2019-06-26T01:43:05.585Z,0.00
2019-06-26T01:44:14.758Z,0.00
2019-06-26T01:45:05.584Z,0.00
2019-06-26T01:46:05.591Z,0.00
2019-06-26T01:47:05.579Z,0.00
2019-06-26T01:48:05.579Z,0.00
2019-06-26T01:49:05.573Z,0.00
2019-06-26T01:50:05.572Z,0.00
2019-06-26T01:51:05.567Z,0.00
2019-06-26T01:52:05.561Z,0.00
2019-06-26T01:53:05.560Z,0.00
2019-06-26T01:54:05.579Z,0.00
2019-06-26T01:55:05.579Z,0.00
2019-06-26T01:56:05.556Z,0.00
2019-06-26T01:57:05.549Z,0.00
2019-06-26T01:58:05.550Z,0.00
2019-06-26T01:59:05.544Z,0.00
2019-06-26T02:00:05.543Z,0.00
2019-06-26T02:01:05.543Z,0.00
2019-06-26T02:02:05.540Z,0.00
2019-06-26T02:03:05.540Z,0.00
2019-06-26T02:04:05.530Z,0.00
2019-06-26T02:05:05.607Z,0.00
2019-06-26T02:06:05.529Z,0.00
2019-06-26T02:07:05.558Z,0.00
2019-06-26T02:08:05.518Z,0.00
2019-06-26T02:09:05.518Z,0.00
2019-06-26T02:10:05.528Z,0.00
2019-06-26T02:11:05.510Z,0.00
2019-06-26T02:12:05.509Z,0.00
2019-06-26T02:13:05.508Z,0.00
2019-06-26T02:14:05.569Z,0.00
2019-06-26T02:15:05.501Z,0.00
2019-06-26T02:16:05.496Z,0.00
2019-06-26T02:17:05.494Z,0.00
2019-06-26T02:18:05.491Z,0.00
2019-06-26T02:19:05.487Z,0.00
2019-06-26T02:20:05.490Z,0.00
2019-06-26T02:21:05.484Z,0.00
2019-06-26T02:22:05.544Z,0.00
2019-06-26T02:23:05.476Z,0.00
2019-06-26T02:24:05.474Z,0.00
2019-06-26T02:25:05.469Z,0.00
2019-06-26T02:26:05.471Z,0.00
2019-06-26T02:27:05.464Z,0.00
2019-06-26T02:28:05.469Z,0.00
2019-06-26T02:29:05.461Z,0.00
2019-06-26T02:30:05.463Z,0.00
2019-06-26T02:31:05.456Z,0.00
2019-06-26T02:32:05.467Z,0.00
2019-06-26T02:33:05.447Z,0.00
2019-06-26T02:34:05.456Z,0.00
2019-06-26T02:35:09.336Z,0.00
2019-06-26T02:36:05.477Z,0.00
2019-06-26T02:37:05.439Z,0.00
2019-06-26T02:38:05.441Z,0.00
2019-06-26T02:39:05.435Z,0.00
2019-06-26T02:40:05.427Z,0.00
2019-06-26T02:41:05.426Z,0.00
2019-06-26T02:42:05.430Z,0.00
2019-06-26T02:43:07.160Z,0.00
2019-06-26T02:44:05.425Z,0.00
2019-06-26T02:45:05.416Z,0.00
2019-06-26T02:46:05.488Z,0.00
2019-06-26T02:47:18.470Z,0.00
2019-06-26T02:48:05.405Z,0.00
2019-06-26T02:49:05.408Z,0.00
2019-06-26T02:50:05.399Z,0.00
2019-06-26T02:51:05.399Z,0.00
2019-06-26T02:52:05.397Z,0.00
2019-06-26T02:53:05.397Z,0.00
2019-06-26T02:54:05.388Z,0.00
2019-06-26T02:55:05.385Z,4.00
2019-06-26T02:56:05.397Z,4.00
2019-06-26T02:57:05.381Z,0.00
2019-06-26T02:58:05.387Z,0.00
2019-06-26T02:59:05.377Z,4.00
2019-06-26T03:00:05.388Z,4.00
2019-06-26T03:01:05.372Z,0.00
2019-06-26T03:02:05.366Z,4.00
2019-06-26T03:03:05.368Z,4.00
2019-06-26T03:04:05.358Z,4.00
2019-06-26T03:05:05.356Z,4.00
2019-06-26T03:30:43.745Z,96.00
2019-06-26T03:31:43.735Z,104.00
2019-06-26T03:32:43.720Z,112.00
2019-06-26T03:33:43.717Z,120.00
2019-06-26T03:34:43.714Z,136.00
2019-06-26T03:35:43.710Z,144.00
2019-06-26T03:36:43.708Z,152.00
2019-06-26T03:49:30.884Z,400.00
2019-06-26T03:50:30.885Z,432.00
2019-06-26T03:51:30.878Z,464.00
2019-06-26T03:52:30.874Z,496.00
2019-06-26T03:53:30.921Z,528.00
2019-06-26T03:54:31.152Z,564.00
2019-06-26T03:55:30.865Z,604.00
2019-06-26T03:56:30.861Z,644.00
2019-06-26T03:57:30.857Z,688.00
2019-06-26T03:58:30.854Z,732.00
2019-06-26T03:59:30.854Z,780.00
2019-06-26T04:00:30.865Z,828.00
2019-06-26T04:01:30.860Z,876.00
2019-06-26T04:02:30.846Z,932.00
2019-06-26T04:03:30.841Z,988.00
2019-06-26T04:04:30.839Z,1048.00
2019-06-26T04:05:30.835Z,1112.00
2019-06-26T04:06:30.832Z,1176.00
2019-06-26T04:07:30.831Z,1248.00
2019-06-26T04:08:30.829Z,1320.00
2019-06-26T04:09:30.824Z,1396.00
2019-06-26T04:10:30.823Z,1476.00
2019-06-26T04:11:30.820Z,1560.00
2019-06-26T04:12:30.814Z,1652.00
2019-06-26T04:13:30.813Z,1744.00
2019-06-26T04:14:30.809Z,1844.00
2019-06-26T04:15:41.307Z,1948.00
2019-06-26T04:16:30.805Z,2060.00
2019-06-26T04:17:30.800Z,2184.00
2019-06-26T04:18:30.799Z,2312.00
2019-06-26T04:19:30.797Z,3048.00
2019-06-26T04:20:30.794Z,4676.00
2019-06-26T04:21:30.797Z,5936.00
2019-06-26T04:22:30.789Z,6416.00
2019-06-26T04:23:30.786Z,6780.00
2019-06-26T04:24:30.782Z,7040.00
2019-06-26T04:25:30.786Z,7420.00
2019-06-26T04:26:30.780Z,7852.00
2019-06-26T04:31:54.791Z,10808.00
2019-06-26T04:32:54.787Z,11036.00
2019-06-26T04:33:54.782Z,11936.00
2019-06-26T04:34:54.781Z,12384.00
2019-06-26T04:35:54.781Z,12512.00
2019-06-26T04:36:54.781Z,12672.00
2019-06-26T04:37:54.777Z,13184.00
2019-06-26T04:38:54.777Z,13856.00
2019-06-26T04:39:54.788Z,14144.00
2019-06-26T04:40:54.772Z,15392.00
2019-06-26T04:41:54.776Z,15808.00
2019-06-26T04:48:52.063Z,20256.00
2019-06-26T04:49:52.061Z,20384.00
2019-06-26T04:53:27.785Z,20992.00
2019-06-26T04:54:27.786Z,21312.00
2019-06-26T04:56:30.251Z,21696.00
2019-06-26T04:57:30.250Z,21568.00
2019-06-26T05:07:53.565Z,26048.00
2019-06-26T05:12:28.911Z,27552.00
2019-06-26T05:13:28.913Z,26912.00
2019-06-26T05:15:39.415Z,6940.00
2019-06-26T05:16:36.391Z,6548.00
2019-06-26T05:18:43.868Z,6200.00
2019-06-26T05:21:14.008Z,5912.00
2019-06-26T05:22:11.386Z,5816.00
2019-06-26T05:23:11.398Z,5720.00
2019-06-26T05:24:11.390Z,5648.00
2019-06-26T05:25:11.393Z,5584.00
2019-06-26T05:26:11.395Z,5508.00
2019-06-26T05:27:11.395Z,5448.00
2019-06-26T05:28:11.411Z,5392.00
2019-06-26T05:29:11.397Z,5344.00
2019-06-26T05:30:11.400Z,5280.00
2019-06-26T05:31:11.412Z,5220.00
2019-06-26T05:32:11.406Z,5164.00
2019-06-26T05:33:11.403Z,5104.00
2019-06-26T05:34:11.407Z,5080.00
2019-06-26T05:35:11.413Z,5040.00
2019-06-26T05:36:11.408Z,4996.00
2019-06-26T05:37:11.410Z,4968.00
2019-06-26T05:38:11.411Z,4928.00
2019-06-26T05:41:37.125Z,4784.00
2019-06-26T05:45:37.903Z,4636.00
2019-06-26T05:46:37.901Z,4604.00
2019-06-26T05:47:37.902Z,4568.00
2019-06-26T05:48:37.903Z,4540.00
2019-06-26T05:49:37.902Z,4512.00
2019-06-26T05:50:37.904Z,4484.00
2019-06-26T05:51:37.904Z,4448.00
2019-06-26T05:52:41.995Z,4420.00
2019-06-26T05:53:37.901Z,4396.00
2019-06-26T05:54:37.901Z,4360.00
2019-06-26T05:55:37.905Z,4324.00
2019-06-26T05:56:37.902Z,4288.00
2019-06-26T05:57:41.486Z,4256.00
2019-06-26T05:58:37.904Z,4216.00
2019-06-26T05:59:37.903Z,4188.00
2019-06-26T06:00:37.908Z,4160.00
2019-06-26T06:01:37.904Z,4128.00
2019-06-26T06:02:37.907Z,4112.00
2019-06-26T06:03:37.904Z,4084.00
2019-06-26T06:04:37.906Z,4060.00
2019-06-26T06:05:37.906Z,4036.00
2019-06-26T06:06:42.070Z,4020.00
2019-06-26T06:07:37.905Z,4004.00
2019-06-26T06:08:37.906Z,3992.00
2019-06-26T06:09:37.905Z,3968.00
2019-06-26T06:10:37.907Z,3944.00
2019-06-26T06:11:37.905Z,3928.00
2019-06-26T06:12:37.907Z,3916.00
2019-06-26T06:13:37.906Z,3900.00
2019-06-26T06:14:37.930Z,3888.00
2019-06-26T06:15:37.924Z,3876.00
2019-06-26T06:16:47.193Z,3860.00
2019-06-26T06:17:37.909Z,3844.00
2019-06-26T06:18:37.909Z,3836.00
2019-06-26T06:19:37.911Z,3824.00
2019-06-26T06:20:37.929Z,3816.00
2019-06-26T06:21:37.911Z,3804.00
2019-06-26T06:22:37.910Z,3792.00
2019-06-26T06:23:37.916Z,3784.00
2019-06-26T06:24:37.916Z,3776.00
2019-06-26T06:28:38.689Z,3724.00
2019-06-26T06:30:21.116Z,3716.00
2019-06-26T06:31:21.112Z,3700.00
2019-06-26T06:32:21.116Z,3696.00
2019-06-26T06:33:21.113Z,3688.00
2019-06-26T06:34:21.122Z,3676.00
2019-06-26T06:35:21.114Z,3664.00
2019-06-26T06:36:21.116Z,3656.00
2019-06-26T06:43:33.433Z,3564.00
2019-06-26T06:44:33.433Z,3556.00
2019-06-26T06:45:33.441Z,3548.00
2019-06-26T06:46:33.438Z,3532.00
2019-06-26T06:47:33.440Z,3516.00
2019-06-26T06:48:33.440Z,3512.00
2019-06-26T06:49:33.445Z,3500.00
2019-06-26T06:50:33.441Z,3484.00
2019-06-26T06:51:33.439Z,3472.00
2019-06-26T06:52:33.441Z,3456.00
2019-06-26T06:57:11.636Z,3404.00
2019-06-26T06:58:11.637Z,3392.00
2019-06-26T06:59:11.640Z,3384.00
2019-06-26T07:00:11.646Z,3372.00
2019-06-26T07:01:11.647Z,3364.00
2019-06-26T07:02:11.639Z,3356.00
2019-06-26T07:03:11.644Z,3348.00
2019-06-26T07:04:11.645Z,3340.00
2019-06-26T07:05:11.642Z,3328.00
2019-06-26T07:06:11.643Z,3320.00
2019-06-26T07:07:11.647Z,3312.00
2019-06-26T07:08:11.646Z,3300.00
2019-06-26T07:09:11.652Z,3292.00
2019-06-26T07:11:44.170Z,3264.00
2019-06-26T07:12:44.174Z,3256.00
2019-06-26T07:13:44.172Z,3248.00
2019-06-26T07:14:44.174Z,3232.00
2019-06-26T07:15:44.178Z,3220.00
2019-06-26T07:16:44.177Z,3212.00
2019-06-26T07:17:44.182Z,3200.00
2019-06-26T07:19:31.614Z,3188.00
2019-06-26T07:20:31.616Z,3180.00
2019-06-26T07:21:31.617Z,3176.00
2019-06-26T07:22:31.621Z,3160.00
2019-06-26T07:23:31.621Z,3152.00
2019-06-26T07:24:31.622Z,3144.00
2019-06-26T07:25:31.625Z,3128.00
2019-06-26T07:26:31.625Z,3124.00
2019-06-26T07:27:31.623Z,3116.00
2019-06-26T07:28:31.626Z,3112.00
2019-06-26T07:29:31.630Z,3104.00
2019-06-26T07:30:31.629Z,3096.00
2019-06-26T07:31:31.632Z,3088.00
2019-06-26T07:32:31.634Z,3076.00
2019-06-26T07:33:31.635Z,3064.00
2019-06-26T07:34:31.636Z,3060.00
2019-06-26T07:35:31.647Z,3052.00
2019-06-26T07:36:31.640Z,3040.00
2019-06-26T07:37:31.642Z,3040.00
2019-06-26T07:38:31.645Z,3024.00
2019-06-26T07:39:31.644Z,3016.00
2019-06-26T07:40:31.645Z,3004.00
2019-06-26T07:41:31.654Z,2996.00
2019-06-26T07:42:31.656Z,2992.00
2019-06-26T07:43:31.649Z,2980.00
2019-06-26T07:44:31.711Z,2972.00
2019-06-26T07:45:31.654Z,2956.00
2019-06-26T07:46:31.654Z,2948.00
2019-06-26T07:47:42.399Z,2948.00
2019-06-26T07:48:31.658Z,2944.00
2019-06-26T07:49:31.657Z,2936.00
2019-06-26T07:50:32.710Z,2932.00
2019-06-26T07:51:31.661Z,2928.00
2019-06-26T07:52:31.664Z,2916.00
2019-06-26T07:53:31.669Z,2908.00
2019-06-26T07:54:31.667Z,2904.00
2019-06-26T07:55:31.673Z,2896.00
2019-06-26T07:56:31.670Z,2892.00
2019-06-26T07:57:31.674Z,2888.00
2019-06-26T07:58:31.673Z,2876.00
2019-06-26T07:59:31.675Z,2872.00
2019-06-26T08:00:32.012Z,2868.00
2019-06-26T08:01:31.683Z,2860.00
2019-06-26T08:02:31.726Z,2856.00
2019-06-26T08:03:31.689Z,2856.00
2019-06-26T08:04:31.684Z,2852.00
2019-06-26T08:05:34.310Z,2844.00
2019-06-26T08:18:58.685Z,2784.00
2019-06-26T08:19:58.689Z,2788.00
2019-06-26T08:24:04.474Z,2764.00
2019-06-26T08:25:04.474Z,2768.00
2019-06-26T08:26:04.475Z,2760.00
2019-06-26T08:27:04.478Z,2748.00
2019-06-26T08:28:04.484Z,2748.00
2019-06-26T08:29:04.484Z,2748.00
2019-06-26T08:30:04.486Z,2744.00
2019-06-26T08:31:04.486Z,2744.00
2019-06-26T08:32:04.527Z,2740.00
2019-06-26T08:33:04.489Z,2740.00
2019-06-26T08:40:31.851Z,2708.00
2019-06-26T08:41:31.854Z,2704.00
2019-06-26T08:42:31.855Z,2700.00
2019-06-26T08:43:31.865Z,2700.00
2019-06-26T08:44:31.862Z,2692.00
2019-06-26T08:51:44.197Z,2676.00
2019-06-26T08:52:44.207Z,2672.00
2019-06-26T08:53:44.204Z,2668.00
2019-06-26T08:54:44.268Z,2668.00
2019-06-26T08:55:44.211Z,2660.00
2019-06-26T08:56:44.617Z,2660.00
2019-06-26T08:57:44.216Z,2656.00
2019-06-26T08:58:44.218Z,2656.00
2019-06-26T08:59:44.218Z,2652.00
2019-06-26T09:00:44.227Z,2648.00
2019-06-26T09:01:44.235Z,2644.00
2019-06-26T09:02:44.233Z,2640.00
2019-06-26T09:05:11.746Z,2640.00
2019-06-26T09:10:20.754Z,2624.00
2019-06-26T09:13:05.649Z,2624.00
2019-06-26T09:27:31.194Z,2576.00
2019-06-26T09:28:31.193Z,2572.00
2019-06-26T09:29:31.199Z,2568.00
2019-06-26T09:30:31.198Z,2564.00
2019-06-26T09:31:31.207Z,2564.00
2019-06-26T09:42:42.529Z,2540.00
2019-06-26T09:43:42.532Z,2540.00
2019-06-26T09:44:42.537Z,2536.00
2019-06-26T09:45:42.542Z,2532.00
2019-06-26T09:46:42.548Z,2528.00
2019-06-26T09:47:42.548Z,2524.00
2019-06-26T09:50:00.171Z,2524.00
2019-06-26T09:51:00.176Z,2520.00
2019-06-26T09:52:00.185Z,2520.00
2019-06-26T09:53:00.191Z,2516.00
2019-06-26T09:54:00.189Z,2516.00
2019-06-26T09:55:00.191Z,2516.00
2019-06-26T09:56:00.196Z,2512.00
2019-06-26T09:57:00.200Z,2508.00
2019-06-26T09:58:00.225Z,2500.00
2019-06-26T10:12:11.585Z,2472.00
2019-06-26T10:15:37.304Z,2464.00
2019-06-26T10:19:54.258Z,2468.00
2019-06-26T10:20:53.131Z,2468.00
2019-06-26T10:21:53.186Z,2464.00
2019-06-26T10:22:53.137Z,2464.00
2019-06-26T10:23:53.143Z,2460.00
2019-06-26T10:24:53.145Z,2464.00
2019-06-26T10:25:53.239Z,2460.00
2019-06-26T10:26:53.156Z,2460.00
2019-06-26T10:27:53.156Z,2456.00
2019-06-26T10:28:53.162Z,2460.00
2019-06-26T10:29:53.169Z,2460.00
2019-06-26T10:30:53.170Z,2460.00
2019-06-26T10:31:53.175Z,2460.00
2019-06-26T10:32:53.191Z,2460.00
2019-06-26T10:33:53.182Z,2464.00
2019-06-26T10:34:53.187Z,2468.00
2019-06-26T10:35:53.193Z,2460.00
2019-06-26T10:36:53.197Z,2460.00
2019-06-26T10:37:53.215Z,2456.00
2019-06-26T10:38:53.210Z,2456.00
2019-06-26T10:39:53.219Z,2452.00
2019-06-26T10:40:53.218Z,2452.00
2019-06-26T10:41:55.021Z,2452.00
2019-06-26T10:42:53.236Z,2448.00
2019-06-26T10:43:53.241Z,2448.00
2019-06-26T10:44:53.235Z,2452.00
2019-06-26T10:45:53.239Z,2456.00
2019-06-26T10:46:53.247Z,2452.00
2019-06-26T10:47:53.251Z,2448.00
2019-06-26T10:48:53.253Z,2452.00
2019-06-26T10:49:53.264Z,2448.00
2019-06-26T10:50:58.564Z,2448.00
2019-06-26T10:51:53.268Z,2448.00
2019-06-26T10:52:53.271Z,2452.00
2019-06-26T10:53:53.276Z,2448.00
2019-06-26T10:54:53.283Z,2456.00
2019-06-26T10:55:53.289Z,2452.00
2019-06-26T10:56:53.292Z,2444.00
2019-06-26T10:57:53.305Z,2448.00
2019-06-26T10:58:53.309Z,2448.00
2019-06-26T10:59:55.771Z,2444.00
2019-06-26T11:00:53.314Z,2448.00
2019-06-26T11:01:53.318Z,2456.00
2019-06-26T11:02:53.324Z,2452.00
2019-06-26T11:03:53.325Z,2456.00
2019-06-26T11:04:53.331Z,2456.00
2019-06-26T11:05:53.337Z,2456.00
2019-06-26T11:06:53.343Z,2460.00
2019-06-26T11:07:53.345Z,2460.00
2019-06-26T11:08:53.353Z,2460.00
2019-06-26T11:09:53.370Z,2456.00
2019-06-26T11:10:53.368Z,2456.00
2019-06-26T11:11:53.365Z,2456.00
2019-06-26T11:12:53.367Z,2452.00
2019-06-26T11:13:53.374Z,2448.00
2019-06-26T11:14:53.385Z,2452.00
2019-06-26T11:15:53.384Z,2456.00
2019-06-26T11:16:53.389Z,2460.00
2019-06-26T11:17:53.393Z,2464.00
2019-06-26T11:18:53.408Z,2468.00
2019-06-26T11:19:55.498Z,2468.00
2019-06-26T11:20:53.418Z,2464.00
2019-06-26T11:21:53.411Z,2464.00
2019-06-26T11:22:53.431Z,2468.00
2019-06-26T11:23:53.428Z,2472.00
2019-06-26T11:24:53.440Z,2476.00
2019-06-26T11:25:53.431Z,2472.00
2019-06-26T11:26:53.439Z,2468.00
2019-06-26T11:27:53.448Z,2472.00
2019-06-26T11:28:53.450Z,2468.00
2019-06-26T11:29:53.463Z,2472.00
2019-06-26T11:30:53.456Z,2468.00
2019-06-26T11:31:53.469Z,2472.00
2019-06-26T11:32:53.468Z,2464.00
2019-06-26T11:33:53.477Z,2464.00
2019-06-26T11:34:53.480Z,2464.00
2019-06-26T11:35:53.510Z,2472.00
2019-06-26T11:37:03.185Z,2472.00
2019-06-26T11:37:53.494Z,2472.00
2019-06-26T11:38:53.499Z,2480.00
2019-06-26T11:39:53.504Z,2480.00
2019-06-26T11:40:53.659Z,2480.00
2019-06-26T11:41:53.526Z,2476.00
2019-06-26T11:42:53.519Z,2480.00
2019-06-26T11:43:53.532Z,2480.00
2019-06-26T11:44:53.538Z,2476.00
2019-06-26T11:45:53.533Z,2476.00
2019-06-26T11:46:53.565Z,2476.00
2019-06-26T11:47:53.547Z,2480.00
2019-06-26T11:48:53.549Z,2484.00
2019-06-26T11:50:00.027Z,2476.00
2019-06-26T11:50:53.563Z,2480.00
2019-06-26T11:51:53.565Z,2496.00
2019-06-26T11:52:53.573Z,2500.00
2019-06-26T11:53:53.578Z,2508.00
2019-06-26T11:55:02.460Z,2508.00
2019-06-26T11:55:53.584Z,2500.00
2019-06-26T11:56:53.591Z,2496.00
2019-06-26T11:57:53.614Z,2492.00
2019-06-26T11:58:53.611Z,2492.00
2019-06-26T11:59:53.648Z,2500.00
2019-06-26T12:00:53.614Z,2500.00
2019-06-26T12:01:53.682Z,2508.00
2019-06-26T12:02:53.624Z,2508.00
2019-06-26T12:03:53.631Z,2508.00
2019-06-26T12:04:53.651Z,2504.00
2019-06-26T12:05:53.644Z,2508.00
2019-06-26T12:06:53.644Z,2512.00
2019-06-26T12:07:53.650Z,2516.00
2019-06-26T12:08:53.655Z,2516.00
2019-06-26T12:09:53.748Z,2520.00
2019-06-26T12:10:53.665Z,2516.00
2019-06-26T12:11:53.673Z,2524.00
2019-06-26T12:12:53.679Z,2528.00
2019-06-26T12:13:53.682Z,2540.00
2019-06-26T12:14:53.688Z,2548.00
2019-06-26T12:15:53.694Z,2560.00
2019-06-26T12:16:53.701Z,2556.00
2019-06-26T12:17:53.708Z,2548.00
2019-06-26T12:18:53.715Z,2540.00
2019-06-26T12:19:53.718Z,2532.00
2019-06-26T12:20:53.721Z,2540.00
2019-06-26T12:21:53.726Z,2548.00
2019-06-26T12:22:53.734Z,2588.00
2019-06-26T12:23:53.741Z,2612.00
2019-06-26T12:24:53.744Z,2604.00
2019-06-26T12:25:53.747Z,2568.00
2019-06-26T12:26:53.756Z,2564.00
2019-06-26T12:27:53.764Z,2564.00
2019-06-26T12:28:53.765Z,2568.00
2019-06-26T12:29:53.778Z,2572.00
2019-06-26T12:30:53.777Z,2568.00
2019-06-26T12:31:53.788Z,2572.00
2019-06-26T12:33:02.744Z,2564.00
2019-06-26T12:33:53.791Z,2564.00
2019-06-26T12:34:53.798Z,2564.00
2019-06-26T12:35:53.804Z,2564.00
2019-06-26T12:36:53.810Z,2564.00
2019-06-26T12:37:53.816Z,2560.00
2019-06-26T12:38:53.820Z,2568.00
2019-06-26T12:39:53.829Z,2564.00
2019-06-26T12:40:53.832Z,2556.00
2019-06-26T12:41:53.838Z,2552.00
2019-06-26T12:42:55.696Z,2560.00
2019-06-26T12:43:53.853Z,2560.00
2019-06-26T12:44:53.858Z,2568.00
2019-06-26T12:45:53.860Z,2564.00
2019-06-26T12:46:53.866Z,2568.00
2019-06-26T12:47:53.874Z,2576.00
2019-06-26T12:48:53.880Z,2576.00
2019-06-26T12:49:54.102Z,2576.00
2019-06-26T12:50:55.307Z,2576.00
2019-06-26T12:51:53.896Z,2580.00
2019-06-26T12:52:53.902Z,2576.00
2019-06-26T12:53:53.909Z,2576.00
2019-06-26T12:54:53.914Z,2580.00
2019-06-26T12:55:53.919Z,2580.00
2019-06-26T12:56:53.924Z,2580.00
2019-06-26T12:57:53.932Z,2576.00
2019-06-26T12:58:53.939Z,2580.00
2019-06-26T12:59:57.774Z,2584.00
2019-06-26T13:00:53.953Z,2588.00
2019-06-26T13:01:53.957Z,2592.00
2019-06-26T13:02:53.961Z,2600.00
2019-06-26T13:03:53.971Z,2604.00
2019-06-26T13:04:53.972Z,2588.00
2019-06-26T13:05:54.054Z,2596.00
2019-06-26T13:06:53.985Z,2596.00
2019-06-26T13:07:53.991Z,2596.00
2019-06-26T13:08:53.997Z,2592.00
2019-06-26T13:09:54.003Z,2592.00
2019-06-26T13:10:54.009Z,2592.00
2019-06-26T13:11:54.015Z,2600.00
2019-06-26T13:12:54.024Z,2604.00
2019-06-26T13:14:02.506Z,2604.00
2019-06-26T13:14:54.034Z,2600.00
2019-06-26T13:15:54.041Z,2608.00
2019-06-26T13:16:54.046Z,2616.00
2019-06-26T13:17:54.073Z,2628.00
2019-06-26T13:18:54.088Z,2636.00
2019-06-26T13:19:54.066Z,2632.00
2019-06-26T13:20:54.101Z,2628.00
2019-06-26T13:21:54.082Z,2632.00
2019-06-26T13:22:54.111Z,2636.00
2019-06-26T13:23:54.087Z,2632.00
2019-06-26T13:24:54.107Z,2624.00
2019-06-26T13:25:54.099Z,2616.00
2019-06-26T13:26:54.677Z,2616.00
2019-06-26T13:27:54.112Z,2616.00
2019-06-26T13:28:54.114Z,2608.00
2019-06-26T13:29:54.290Z,2608.00
2019-06-26T13:30:54.128Z,2608.00
2019-06-26T13:31:54.133Z,2608.00
2019-06-26T13:32:54.139Z,2604.00
2019-06-26T13:33:54.145Z,2608.00
2019-06-26T13:34:54.155Z,2608.00
2019-06-26T13:35:54.159Z,2604.00
2019-06-26T13:36:54.164Z,2612.00
2019-06-26T13:37:54.166Z,2616.00
2019-06-26T13:38:54.174Z,2620.00
2019-06-26T13:39:54.182Z,2612.00
2019-06-26T13:40:54.187Z,2612.00
2019-06-26T13:41:54.200Z,2608.00
2019-06-26T13:42:54.197Z,2612.00
2019-06-26T13:43:54.203Z,2608.00
2019-06-26T13:44:54.209Z,2612.00
2019-06-26T13:45:54.219Z,2624.00
2019-06-26T13:46:54.222Z,2604.00
2019-06-26T13:47:54.231Z,2608.00
2019-06-26T13:48:54.241Z,2608.00
2019-06-26T13:49:54.239Z,2604.00
2019-06-26T13:51:08.056Z,2604.00
2019-06-26T13:51:54.251Z,2604.00
2019-06-26T13:52:54.270Z,2608.00
2019-06-26T13:53:54.261Z,2600.00
2019-06-26T13:54:57.229Z,2604.00
2019-06-26T13:55:54.273Z,2604.00
2019-06-26T13:56:54.278Z,2600.00
2019-06-26T13:57:54.284Z,2596.00
2019-06-26T13:58:54.291Z,2604.00
2019-06-26T13:59:54.299Z,2600.00
2019-06-26T14:00:54.303Z,2592.00
2019-06-26T14:01:54.307Z,2592.00
2019-06-26T14:02:54.317Z,2592.00
2019-06-26T14:03:54.329Z,2600.00
2019-06-26T14:04:54.345Z,2596.00
2019-06-26T14:05:54.330Z,2596.00
2019-06-26T14:06:54.338Z,2592.00
2019-06-26T14:07:54.344Z,2588.00
2019-06-26T14:08:54.348Z,2588.00
2019-06-26T14:09:54.354Z,2588.00
2019-06-26T14:10:54.362Z,2588.00
2019-06-26T14:11:54.365Z,2584.00
2019-06-26T14:12:54.373Z,2580.00
2019-06-26T14:13:54.387Z,2576.00
2019-06-26T14:14:57.632Z,2580.00
2019-06-26T14:15:54.388Z,2576.00
2019-06-26T14:16:54.394Z,2580.00
2019-06-26T14:17:54.401Z,2584.00
2019-06-26T14:18:54.408Z,2580.00
2019-06-26T14:19:54.411Z,2580.00
2019-06-26T14:20:54.420Z,2580.00
2019-06-26T14:21:54.424Z,2580.00
2019-06-26T14:22:54.431Z,2576.00
2019-06-26T14:23:54.443Z,2576.00
2019-06-26T14:24:54.485Z,2576.00
2019-06-26T14:25:54.447Z,2576.00
2019-06-26T14:26:54.454Z,2568.00
2019-06-26T14:27:54.460Z,2532.00
2019-06-26T14:28:54.470Z,2516.00
2019-06-26T14:29:54.474Z,2552.00
2019-06-26T14:30:54.477Z,2560.00
2019-06-26T14:31:54.488Z,2564.00
2019-06-26T14:32:54.490Z,2564.00
2019-06-26T14:33:54.496Z,2560.00
2019-06-26T14:34:54.504Z,2560.00
2019-06-26T14:35:54.507Z,2560.00
2019-06-26T14:36:54.513Z,2560.00
2019-06-26T14:37:54.521Z,2560.00
2019-06-26T14:38:54.523Z,2560.00
2019-06-26T14:39:54.528Z,2552.00
2019-06-26T14:40:54.536Z,2556.00
2019-06-26T14:41:54.543Z,2548.00
2019-06-26T14:42:54.546Z,2544.00
2019-06-26T14:43:54.555Z,2540.00
2019-06-26T14:44:54.635Z,2544.00
2019-06-26T14:45:54.567Z,2540.00
2019-06-26T14:46:54.572Z,2536.00
2019-06-26T14:47:54.586Z,2536.00
2019-06-26T14:48:54.584Z,2532.00
2019-06-26T14:49:54.589Z,2528.00
2019-06-26T14:50:54.604Z,2524.00
2019-06-26T14:51:54.606Z,2524.00
2019-06-26T14:52:54.604Z,2520.00
2019-06-26T14:53:54.614Z,2516.00
2019-06-26T14:54:54.618Z,2512.00
2019-06-26T14:55:54.628Z,2508.00
2019-06-26T14:56:54.628Z,2504.00
2019-06-26T14:57:54.636Z,2504.00
2019-06-26T14:58:54.642Z,2504.00
2019-06-26T14:59:54.651Z,2496.00
2019-06-26T15:00:54.656Z,2492.00
2019-06-26T15:01:54.656Z,2484.00
2019-06-26T15:02:54.667Z,2480.00
2019-06-26T15:03:54.671Z,2480.00
2019-06-26T15:04:54.675Z,2472.00
2019-06-26T15:05:54.684Z,2468.00
2019-06-26T15:06:54.685Z,2464.00
2019-06-26T15:07:54.691Z,2460.00
2019-06-26T15:08:54.696Z,2456.00
2019-06-26T15:09:54.707Z,2456.00
2019-06-26T15:10:54.709Z,2448.00
2019-06-26T15:11:54.714Z,2444.00
2019-06-26T15:12:54.720Z,2436.00
2019-06-26T15:13:54.731Z,2432.00
2019-06-26T15:14:54.731Z,2428.00
2019-06-26T15:15:54.988Z,2428.00
2019-06-26T15:16:54.742Z,2420.00
2019-06-26T15:17:54.749Z,2420.00
2019-06-26T15:18:54.756Z,2412.00
2019-06-26T15:19:54.759Z,2408.00
2019-06-26T15:20:54.765Z,2404.00
2019-06-26T15:21:58.816Z,2400.00
2019-06-26T15:22:58.541Z,2388.00
2019-06-26T15:23:54.780Z,2388.00